Monroe Regional Airport
KMLU : now visible

Airfield :











YOU CAN JOIN US ON...

 
LOGIN :

Register | Disclaimer

   EN    FR    IT 

 









Legend :    VFR   Marginal VFR   IFR   Intensive IFR   Very Intensive IFR
Visi :
Ceiling :
>= 8 km
>= 3000ft
5 to 8 km
1000 to 3000 ft
1500m to 5 km
500 to 1000 ft
800 to 1500m
200 to 500 ft
< 800m
< 200 ft
Symbols :   Thunderstorms  Fog  Heavy snow  Heavy precipitations  Wind > 20 kt






- Airport Elevation : 79 ft
- IATA code : MLU


KMLU - Monroe Regional

CURRENT METAR :
  • 250353Z AUTO 03004KT 10SM OVC009 12/11 A3004 RMK AO2 SLP173 T01220106

EXPIRED METARs :
  • 250323Z AUTO 06003KT 10SM OVC009 12/11 A3004 RMK AO2 T01220106
  • 250253Z AUTO 36004KT 10SM OVC010 12/11 A3004 RMK AO2 SLP172 T01220106 53001
  • 250218Z AUTO 36005KT 10SM SCT007 OVC013 12/11 A3004 RMK AO2 T01220106
  • 250153Z AUTO 04004KT 10SM OVC007 12/11 A3004 RMK AO2 SLP171 T01220111

TAF KMLU
Valid from the 25 at 00:00 until the 26 at 00:00 UTC


242348Z 2500/2524 34007KT P6SM OVC012
FM250700 VRB03KT P6SM BKN010
TEMPO 2508/2510 4SM BR BKN007
FM251000 VRB03KT 4SM BR OVC007
FM251500 03005KT P6SM BKN015
FM251800 03003KT P6SM OVC025
FM252100 06004KT P6SM OVC035
KZFW FIR / North America



MET'MAP, your aeronautical weather chart ! - Copyright ORBIFLY December 2007 - Disclaimer

ORBIFLY MET'MAP TEAM :

Programming & Development : Alexandra Zaïnal
Concept & original design : Baudouin d'Aumeries
Assistance for programming : Marc-Olivier Méhu
Technical & hardware support : Manuel Goepfert

Contact : metmap@orbifly.com




SOURCES & CREDITS :

   NOAA       Earth
Advisory